createdAt,value
2023-05-17T00:00:24.557Z,6.5
2023-05-17T00:01:40.838Z,6.5
2023-05-17T00:02:57.134Z,6.6
2023-05-17T00:04:13.412Z,6.6
2023-05-17T00:05:29.709Z,6.5
2023-05-17T00:06:46.017Z,6.5
2023-05-17T00:08:02.322Z,6.5
2023-05-17T00:09:18.614Z,6.5
2023-05-17T00:10:34.903Z,6.5
2023-05-17T00:11:51.198Z,6.5
2023-05-17T00:13:07.484Z,6.4
2023-05-17T00:14:22.792Z,6.4
2023-05-17T00:15:39.081Z,6.4
2023-05-17T00:16:55.407Z,6.4
2023-05-17T00:18:11.669Z,6.4
2023-05-17T00:19:27.959Z,6.4
2023-05-17T00:20:44.281Z,6.3
2023-05-17T00:21:59.602Z,6.4
2023-05-17T00:23:15.863Z,6.3
2023-05-17T00:24:32.181Z,6.3
2023-05-17T00:25:48.451Z,6.3
2023-05-17T00:27:04.748Z,6.2
2023-05-17T00:28:21.049Z,6.2
2023-05-17T00:29:37.373Z,6.2
2023-05-17T00:30:53.634Z,6.2
2023-05-17T00:32:09.963Z,6.1
2023-05-17T00:33:26.256Z,6.1
2023-05-17T00:34:42.542Z,6.1
2023-05-17T00:35:58.838Z,6.1
2023-05-17T00:37:15.126Z,6
2023-05-17T00:38:30.435Z,6
2023-05-17T00:39:46.742Z,6
2023-05-17T00:41:03.024Z,6
2023-05-17T00:42:19.319Z,6
2023-05-17T00:43:35.626Z,5.9
2023-05-17T00:44:51.918Z,5.9
2023-05-17T00:46:08.223Z,5.9
2023-05-17T00:47:24.515Z,5.9
2023-05-17T00:48:40.780Z,5.9
2023-05-17T00:49:57.082Z,5.9
2023-05-17T00:51:13.361Z,5.9
2023-05-17T00:52:29.687Z,5.8
2023-05-17T00:53:45.982Z,5.8
2023-05-17T00:55:01.299Z,5.8
2023-05-17T00:56:17.561Z,5.8
2023-05-17T00:57:33.876Z,5.8
2023-05-17T00:58:50.182Z,5.8
2023-05-17T01:00:06.478Z,5.8
2023-05-17T01:01:22.739Z,5.7
2023-05-17T01:02:39.053Z,5.7
2023-05-17T01:03:55.331Z,5.7
2023-05-17T01:05:11.622Z,5.7
2023-05-17T01:06:27.918Z,5.6
2023-05-17T01:07:44.246Z,5.6
2023-05-17T01:09:00.531Z,5.6
2023-05-17T01:10:16.837Z,5.6
2023-05-17T01:11:32.136Z,5.6
2023-05-17T01:12:48.426Z,5.6
2023-05-17T01:14:04.720Z,5.6
2023-05-17T01:15:21.015Z,5.6
2023-05-17T01:16:37.318Z,5.6
2023-05-17T01:17:53.605Z,5.6
2023-05-17T01:19:09.911Z,5.6
2023-05-17T01:20:26.195Z,5.6
2023-05-17T01:21:42.487Z,5.6
2023-05-17T01:22:58.793Z,5.6
2023-05-17T01:24:15.087Z,5.6
2023-05-17T01:26:47.644Z,5.6
2023-05-17T01:28:02.982Z,5.6
2023-05-17T01:29:19.255Z,5.6
2023-05-17T01:30:35.584Z,5.7
2023-05-17T01:31:51.860Z,5.7
2023-05-17T01:33:08.175Z,5.7
2023-05-17T01:34:24.463Z,5.7
2023-05-17T01:35:40.740Z,5.7
2023-05-17T01:36:57.039Z,5.7
2023-05-17T01:38:13.339Z,5.7
2023-05-17T01:39:29.627Z,5.7
2023-05-17T01:40:45.926Z,5.7
2023-05-17T01:42:02.199Z,5.7
2023-05-17T01:43:18.524Z,5.7
2023-05-17T01:44:33.804Z,5.7
2023-05-17T01:45:50.136Z,5.7
2023-05-17T01:47:06.421Z,5.7
2023-05-17T01:48:22.690Z,5.7
2023-05-17T01:49:39.011Z,5.7
2023-05-17T01:50:55.284Z,5.6
2023-05-17T01:52:11.593Z,5.6
2023-05-17T01:53:27.904Z,5.7
2023-05-17T01:54:44.187Z,5.6
2023-05-17T01:56:00.482Z,5.6
2023-05-17T01:57:16.748Z,5.6
2023-05-17T01:58:33.074Z,5.6
2023-05-17T01:59:49.369Z,5.6
2023-05-17T02:01:04.687Z,5.6
2023-05-17T02:02:20.965Z,5.6
2023-05-17T02:03:37.267Z,5.6
2023-05-17T02:04:53.556Z,5.5
2023-05-17T02:06:09.843Z,5.5
2023-05-17T02:07:26.154Z,5.5
2023-05-17T02:08:42.428Z,5.5
2023-05-17T02:09:58.714Z,5.5
2023-05-17T02:11:15.011Z,5.4
2023-05-17T02:12:31.295Z,5.4
2023-05-17T02:13:47.590Z,5.4
2023-05-17T02:15:03.898Z,5.4
2023-05-17T02:16:20.192Z,5.4
2023-05-17T02:17:35.501Z,5.4
2023-05-17T02:18:51.798Z,5.4
2023-05-17T02:20:08.085Z,5.4
2023-05-17T02:21:24.392Z,5.4
2023-05-17T02:22:40.671Z,5.3
2023-05-17T02:23:56.973Z,5.3
2023-05-17T02:25:13.271Z,5.3
2023-05-17T02:26:29.562Z,5.2
2023-05-17T02:27:45.862Z,5.2
2023-05-17T02:29:02.164Z,5.2
2023-05-17T02:30:18.457Z,5.2
2023-05-17T02:31:34.742Z,5.2
2023-05-17T02:32:51.033Z,5.2
2023-05-17T02:34:06.345Z,5.1
2023-05-17T02:35:22.643Z,5.1
2023-05-17T02:36:38.928Z,5.2
2023-05-17T02:37:55.231Z,5.1
2023-05-17T02:39:11.529Z,5.1
2023-05-17T02:40:27.829Z,5.1
2023-05-17T02:41:44.117Z,5.1
2023-05-17T02:43:00.417Z,5.1
2023-05-17T02:44:16.702Z,5.1
2023-05-17T02:45:33.004Z,5
2023-05-17T02:46:49.285Z,5
2023-05-17T02:48:05.542Z,5
2023-05-17T02:49:21.827Z,5
2023-05-17T02:50:37.139Z,5
2023-05-17T02:51:53.448Z,5
2023-05-17T02:53:09.693Z,5
2023-05-17T02:54:25.920Z,5
2023-05-17T02:55:42.222Z,4.9
2023-05-17T02:56:58.522Z,5
2023-05-17T02:58:14.824Z,4.9
2023-05-17T02:59:31.109Z,4.9
2023-05-17T03:00:47.405Z,4.9
2023-05-17T03:02:03.693Z,4.9
2023-05-17T03:03:19.995Z,4.9
2023-05-17T03:04:36.256Z,4.9
2023-05-17T03:05:52.485Z,4.9
2023-05-17T03:07:07.751Z,4.9
2023-05-17T03:08:23.982Z,4.8
2023-05-17T03:09:40.234Z,4.9
2023-05-17T03:10:56.478Z,4.9
2023-05-17T03:12:12.716Z,4.9
2023-05-17T03:13:28.948Z,4.9
2023-05-17T03:14:45.194Z,4.9
2023-05-17T03:16:01.436Z,4.9
2023-05-17T03:17:17.669Z,4.9
2023-05-17T03:18:33.921Z,4.9
2023-05-17T03:19:50.147Z,4.9
2023-05-17T03:21:06.398Z,4.9
2023-05-17T03:22:22.631Z,4.9
2023-05-17T03:23:37.895Z,5
2023-05-17T03:24:54.126Z,5
2023-05-17T03:26:10.367Z,4.9
2023-05-17T03:27:26.616Z,5
2023-05-17T03:28:42.852Z,5
2023-05-17T03:29:59.091Z,5
2023-05-17T03:31:15.329Z,5
2023-05-17T03:32:31.583Z,5
2023-05-17T03:33:47.810Z,5
2023-05-17T03:35:04.050Z,5
2023-05-17T03:36:20.308Z,5
2023-05-17T03:37:36.537Z,5
2023-05-17T03:38:52.796Z,5
2023-05-17T03:40:08.034Z,5
2023-05-17T03:41:24.288Z,5
2023-05-17T03:42:40.513Z,5.1
2023-05-17T03:43:56.769Z,5.1
2023-05-17T03:45:13.005Z,5.1
2023-05-17T03:46:29.244Z,5.1
2023-05-17T03:47:45.491Z,5.1
2023-05-17T03:49:01.716Z,5.1
2023-05-17T03:50:17.968Z,5.1
2023-05-17T03:51:34.213Z,5.1
2023-05-17T03:52:50.445Z,5.1
2023-05-17T03:54:06.684Z,5.1
2023-05-17T03:55:22.924Z,5.1
2023-05-17T03:56:38.176Z,5.1
2023-05-17T03:57:54.423Z,5.1
2023-05-17T03:59:10.675Z,5.1
2023-05-17T04:00:26.911Z,5.1
2023-05-17T04:01:43.141Z,5.1
2023-05-17T04:02:59.383Z,5.1
2023-05-17T04:04:15.632Z,5.1
2023-05-17T04:05:31.863Z,5.1
2023-05-17T04:06:48.126Z,5.1
2023-05-17T04:08:04.356Z,5.1
2023-05-17T04:09:20.604Z,5.1
2023-05-17T04:10:36.826Z,5.2
2023-05-17T04:11:53.080Z,5.2
2023-05-17T04:13:08.332Z,5.2
2023-05-17T04:14:24.588Z,5.2
2023-05-17T04:15:40.819Z,5.2
2023-05-17T04:16:57.059Z,5.2
2023-05-17T04:18:13.287Z,5.3
2023-05-17T04:19:29.535Z,5.3
2023-05-17T04:20:45.771Z,5.3
2023-05-17T04:22:02.013Z,5.4
2023-05-17T04:23:18.265Z,5.4
2023-05-17T04:24:34.510Z,5.4
2023-05-17T04:25:50.740Z,5.4
2023-05-17T04:27:06.985Z,5.4
2023-05-17T04:28:23.233Z,5.5
2023-05-17T04:29:38.486Z,5.5
2023-05-17T04:30:54.712Z,5.5
2023-05-17T04:32:10.964Z,5.6
2023-05-17T04:33:27.199Z,5.6
2023-05-17T04:34:43.442Z,5.6
2023-05-17T04:35:59.681Z,5.7
2023-05-17T04:37:14.945Z,5.7
2023-05-17T04:38:31.184Z,5.8
2023-05-17T04:39:47.431Z,5.9
2023-05-17T04:41:03.660Z,5.9
2023-05-17T04:42:19.902Z,5.9
2023-05-17T04:43:36.141Z,6
2023-05-17T04:44:52.402Z,6
2023-05-17T04:46:08.635Z,6
2023-05-17T04:47:24.872Z,6.1
2023-05-17T04:48:41.122Z,6.1
2023-05-17T04:49:57.350Z,6.2
2023-05-17T04:51:13.593Z,6.2
2023-05-17T04:52:29.843Z,6.2
2023-05-17T04:53:45.086Z,6.3
2023-05-17T04:55:01.346Z,6.3
2023-05-17T04:56:17.581Z,6.4
2023-05-17T04:57:33.810Z,6.4
2023-05-17T04:58:50.057Z,6.5
2023-05-17T05:00:06.292Z,6.6
2023-05-17T05:01:22.548Z,6.6
2023-05-17T05:02:38.794Z,6.7
2023-05-17T05:03:55.024Z,6.8
2023-05-17T05:05:11.268Z,6.9
2023-05-17T05:06:27.506Z,7
2023-05-17T05:07:43.739Z,7.1
2023-05-17T05:08:59.978Z,7.2
2023-05-17T05:10:15.234Z,7.2
2023-05-17T05:11:31.476Z,7.3
2023-05-17T05:12:47.715Z,7.4
2023-05-17T05:14:03.955Z,7.5
2023-05-17T05:15:20.205Z,7.6
2023-05-17T05:16:36.444Z,7.6
2023-05-17T05:17:52.679Z,7.7
2023-05-17T05:19:08.914Z,7.8
2023-05-17T05:20:25.165Z,7.8
2023-05-17T05:21:41.400Z,7.9
2023-05-17T05:22:57.650Z,8
2023-05-17T05:24:13.887Z,8
2023-05-17T05:25:30.126Z,8
2023-05-17T05:26:45.394Z,8.1
2023-05-17T05:28:01.625Z,8.2
2023-05-17T05:29:17.865Z,8.2
2023-05-17T05:30:34.107Z,8.3
2023-05-17T05:31:50.348Z,8.4
2023-05-17T05:33:06.594Z,8.4
2023-05-17T05:34:22.825Z,8.5
2023-05-17T05:35:39.070Z,8.5
2023-05-17T05:36:55.316Z,8.6
2023-05-17T05:38:11.556Z,8.6
2023-05-17T05:39:27.801Z,8.7
2023-05-17T05:40:44.039Z,8.7
2023-05-17T05:42:00.283Z,8.8
2023-05-17T05:43:15.522Z,8.8
2023-05-17T05:44:31.765Z,8.9
2023-05-17T05:45:48.004Z,8.9
2023-05-17T05:47:04.250Z,9
2023-05-17T05:48:20.497Z,9
2023-05-17T05:49:36.738Z,9.1
2023-05-17T05:50:52.985Z,9.1
2023-05-17T05:52:09.206Z,9.2
2023-05-17T05:53:25.466Z,9.2
2023-05-17T05:54:41.693Z,9.3
2023-05-17T05:55:57.944Z,9.4
2023-05-17T05:57:14.176Z,9.5
2023-05-17T05:58:30.430Z,9.6
2023-05-17T05:59:45.670Z,9.6
2023-05-17T06:01:01.925Z,9.7
2023-05-17T06:02:18.147Z,9.7
2023-05-17T06:03:34.398Z,9.8
2023-05-17T06:04:50.647Z,9.9
2023-05-17T06:06:06.888Z,9.9
2023-05-17T06:07:23.130Z,9.9
2023-05-17T06:08:39.360Z,10
2023-05-17T06:09:55.598Z,10
2023-05-17T06:11:11.845Z,10.1
2023-05-17T06:12:28.080Z,10
2023-05-17T06:13:44.326Z,10.1
2023-05-17T06:15:00.558Z,10.1
2023-05-17T06:16:15.828Z,10.1
2023-05-17T06:17:32.079Z,10.1
2023-05-17T06:18:48.312Z,10
2023-05-17T06:20:04.553Z,10
2023-05-17T06:21:20.799Z,10
2023-05-17T06:22:37.043Z,10
2023-05-17T06:23:53.262Z,10
2023-05-17T06:25:09.506Z,10.1
2023-05-17T06:26:25.751Z,10.1
2023-05-17T06:27:41.995Z,10.1
2023-05-17T06:28:58.225Z,10.1
2023-05-17T06:30:14.478Z,10.2
2023-05-17T06:31:30.721Z,10.2
2023-05-17T06:32:45.984Z,10.2
2023-05-17T06:34:02.230Z,10.2
2023-05-17T06:35:18.472Z,10.3
2023-05-17T06:36:34.711Z,10.3
2023-05-17T06:37:50.955Z,10.3
2023-05-17T06:39:07.197Z,10.2
2023-05-17T06:40:23.447Z,10.2
2023-05-17T06:41:39.682Z,10.2
2023-05-17T06:42:55.913Z,10.1
2023-05-17T06:44:12.153Z,10.1
2023-05-17T06:45:28.394Z,10
2023-05-17T06:46:44.641Z,10
2023-05-17T06:48:00.874Z,9.9
2023-05-17T06:49:16.136Z,9.9
2023-05-17T06:50:32.377Z,9.9
2023-05-17T06:51:48.619Z,9.8
2023-05-17T06:53:04.862Z,9.8
2023-05-17T06:54:21.089Z,9.8
2023-05-17T06:55:37.337Z,9.8
2023-05-17T06:56:53.572Z,9.8
2023-05-17T06:58:09.811Z,9.9
2023-05-17T06:59:26.057Z,9.9
2023-05-17T07:00:42.310Z,10
2023-05-17T07:01:58.541Z,10.1
2023-05-17T07:03:14.774Z,10.1
2023-05-17T07:04:31.017Z,10.2
2023-05-17T07:05:46.273Z,10.3
2023-05-17T07:07:02.530Z,10.4
2023-05-17T07:08:18.762Z,10.5
2023-05-17T07:09:35.002Z,10.5
2023-05-17T07:10:51.249Z,10.7
2023-05-17T07:12:07.486Z,10.8
2023-05-17T07:13:23.725Z,10.9
2023-05-17T07:14:39.970Z,11
2023-05-17T07:15:56.199Z,11.1
2023-05-17T07:17:12.438Z,11.2
2023-05-17T07:18:28.673Z,11.2
2023-05-17T07:19:44.923Z,11.3
2023-05-17T07:21:01.171Z,11.3
2023-05-17T07:22:16.414Z,11.2
2023-05-17T07:23:32.674Z,11.2
2023-05-17T07:24:48.908Z,11.2
2023-05-17T07:26:05.132Z,11.2
2023-05-17T07:27:21.378Z,11.2
2023-05-17T07:28:37.632Z,11.2
2023-05-17T07:29:53.854Z,11.2
2023-05-17T07:31:10.110Z,11.1
2023-05-17T07:32:26.342Z,11.1
2023-05-17T07:33:42.587Z,11
2023-05-17T07:34:58.819Z,10.9
2023-05-17T07:36:15.062Z,10.9
2023-05-17T07:37:31.319Z,10.9
2023-05-17T07:38:46.578Z,11
2023-05-17T07:40:02.812Z,11
2023-05-17T07:41:19.053Z,11
2023-05-17T07:42:35.294Z,11.1
2023-05-17T07:43:51.535Z,11.2
2023-05-17T07:45:07.767Z,11.3
2023-05-17T07:46:24.014Z,11.4
2023-05-17T07:47:40.251Z,11.4
2023-05-17T07:48:56.502Z,11.4
2023-05-17T07:50:12.737Z,11.4
2023-05-17T07:51:28.977Z,11.4
2023-05-17T07:52:45.228Z,11.3
2023-05-17T07:54:01.461Z,11.2
2023-05-17T07:55:16.736Z,11.3
2023-05-17T07:56:32.966Z,11.3
2023-05-17T07:57:49.209Z,11.4
2023-05-17T07:59:05.444Z,11.4
2023-05-17T08:00:21.690Z,11.4
2023-05-17T08:01:37.937Z,11.4
2023-05-17T08:02:54.174Z,11.4
2023-05-17T08:04:10.409Z,11.3
2023-05-17T08:05:26.658Z,11.3
2023-05-17T08:06:42.891Z,11.2
2023-05-17T08:07:59.125Z,11.2
2023-05-17T08:09:15.379Z,11.2
2023-05-17T08:10:31.626Z,11.2
2023-05-17T08:11:46.882Z,11.4
2023-05-17T08:13:03.132Z,11.5
2023-05-17T08:14:19.370Z,11.5
2023-05-17T08:15:35.601Z,11.6
2023-05-17T08:16:51.851Z,11.6
2023-05-17T08:18:08.077Z,11.6
2023-05-17T08:19:24.333Z,11.6
2023-05-17T08:20:40.572Z,11.5
2023-05-17T08:21:56.801Z,11.5
2023-05-17T08:23:13.053Z,11.7
2023-05-17T08:24:29.282Z,11.8
2023-05-17T08:25:45.517Z,11.9
2023-05-17T08:27:01.767Z,12
2023-05-17T08:28:17.030Z,12.1
2023-05-17T08:29:33.259Z,12.1
2023-05-17T08:30:49.496Z,12.1
2023-05-17T08:32:05.735Z,12.2
2023-05-17T08:33:21.985Z,12.4
2023-05-17T08:34:38.237Z,12.6
2023-05-17T08:35:54.470Z,12.7
2023-05-17T08:37:10.699Z,12.7
2023-05-17T08:38:26.943Z,12.6
2023-05-17T08:39:43.196Z,12.6
2023-05-17T08:40:59.417Z,12.5
2023-05-17T08:42:15.669Z,12.5
2023-05-17T08:43:31.901Z,12.4
2023-05-17T08:44:47.176Z,12.4
2023-05-17T08:46:03.405Z,12.4
2023-05-17T08:47:19.647Z,12.4
2023-05-17T08:48:35.894Z,12.3
2023-05-17T08:49:52.136Z,12.3
2023-05-17T08:51:08.372Z,12.3
2023-05-17T08:52:23.636Z,12.2
2023-05-17T08:53:39.869Z,12.2
2023-05-17T08:54:56.100Z,12.2
2023-05-17T08:56:12.347Z,12.1
2023-05-17T08:57:28.581Z,12.1
2023-05-17T08:58:44.834Z,12
2023-05-17T09:00:01.073Z,12
2023-05-17T09:01:17.303Z,12.1
2023-05-17T09:02:33.551Z,12.1
2023-05-17T09:03:49.783Z,12.2
2023-05-17T09:05:06.032Z,12.2
2023-05-17T09:06:22.270Z,12.3
2023-05-17T09:07:38.518Z,12.5
2023-05-17T09:08:53.768Z,12.6
2023-05-17T09:10:10.010Z,12.6
2023-05-17T09:11:26.250Z,12.6
2023-05-17T09:12:42.482Z,12.5
2023-05-17T09:13:58.728Z,12.5
2023-05-17T09:15:14.977Z,12.5
2023-05-17T09:16:31.221Z,12.6
2023-05-17T09:17:47.454Z,12.9
2023-05-17T09:19:03.696Z,13
2023-05-17T09:20:19.940Z,13.1
2023-05-17T09:21:36.186Z,13.2
2023-05-17T09:22:52.427Z,13.3
2023-05-17T09:24:08.676Z,13.3
2023-05-17T09:25:23.923Z,13.3
2023-05-17T09:26:40.157Z,13.2
2023-05-17T09:27:56.407Z,13.1
2023-05-17T09:29:12.641Z,13
2023-05-17T09:30:28.000Z,12.9
2023-05-17T09:31:45.122Z,12.8
2023-05-17T09:33:01.360Z,12.7
2023-05-17T09:34:17.594Z,12.7
2023-05-17T09:35:33.840Z,12.6
2023-05-17T09:36:50.078Z,12.6
2023-05-17T09:38:06.331Z,12.5
2023-05-17T09:39:22.564Z,12.5
2023-05-17T09:40:38.808Z,12.5
2023-05-17T09:41:54.068Z,12.6
2023-05-17T09:43:10.310Z,12.8
2023-05-17T09:44:26.549Z,13
2023-05-17T09:45:42.794Z,13.2
2023-05-17T09:46:59.046Z,13.5
2023-05-17T09:48:15.286Z,13.5
2023-05-17T09:49:31.529Z,13.8
2023-05-17T09:50:47.750Z,13.8
2023-05-17T09:52:04.003Z,13.7
2023-05-17T09:53:20.230Z,13.7
2023-05-17T09:54:36.482Z,13.6
2023-05-17T09:55:52.727Z,13.4
2023-05-17T09:57:08.951Z,13.3
2023-05-17T09:58:24.206Z,13.2
2023-05-17T09:59:40.451Z,13.2
2023-05-17T10:00:56.694Z,13.1
2023-05-17T10:02:12.933Z,13
2023-05-17T10:03:29.171Z,13
2023-05-17T10:04:45.425Z,13.2
2023-05-17T10:06:01.654Z,13.3
2023-05-17T10:07:17.890Z,13.3
2023-05-17T10:08:34.142Z,13.4
2023-05-17T10:09:50.381Z,13.5
2023-05-17T10:11:06.624Z,13.6
2023-05-17T10:12:22.852Z,13.7
2023-05-17T10:13:39.112Z,13.8
2023-05-17T10:14:54.366Z,13.9
2023-05-17T10:16:10.601Z,14.2
2023-05-17T10:17:26.842Z,14.4
2023-05-17T10:18:43.090Z,14.5
2023-05-17T10:19:59.332Z,14.5
2023-05-17T10:21:15.575Z,14.5
2023-05-17T10:22:31.802Z,14.5
2023-05-17T10:23:48.042Z,14.4
2023-05-17T10:25:04.280Z,14.2
2023-05-17T10:26:20.529Z,14.1
2023-05-17T10:27:36.790Z,14.1
2023-05-17T10:28:53.015Z,14.2
2023-05-17T10:30:09.265Z,14.4
2023-05-17T10:31:24.516Z,14.6
2023-05-17T10:32:40.755Z,14.8
2023-05-17T10:33:56.995Z,14.8
2023-05-17T10:35:13.239Z,14.8
2023-05-17T10:36:29.472Z,14.7
2023-05-17T10:37:45.719Z,14.6
2023-05-17T10:39:01.967Z,14.4
2023-05-17T10:40:18.192Z,14.3
2023-05-17T10:41:34.434Z,14.2
2023-05-17T10:42:50.691Z,14.1
2023-05-17T10:44:06.913Z,14.3
2023-05-17T10:45:23.161Z,14.5
2023-05-17T10:46:39.402Z,14.5
2023-05-17T10:47:54.665Z,14.6
2023-05-17T10:49:10.898Z,14.7
2023-05-17T10:50:27.136Z,14.8
2023-05-17T10:51:43.371Z,14.8
2023-05-17T10:52:59.625Z,14.8
2023-05-17T10:54:15.867Z,14.7
2023-05-17T10:55:32.099Z,14.6
2023-05-17T10:56:48.335Z,14.5
2023-05-17T10:58:04.580Z,14.4
2023-05-17T10:59:20.813Z,14.4
2023-05-17T11:00:37.054Z,14.2
2023-05-17T11:01:53.307Z,14.2
2023-05-17T11:03:09.541Z,14.1
2023-05-17T11:04:24.808Z,14.1
2023-05-17T11:05:41.038Z,14.2
2023-05-17T11:06:57.288Z,14.4
2023-05-17T11:08:13.513Z,14.6
2023-05-17T11:09:29.756Z,14.7
2023-05-17T11:10:45.994Z,14.8
2023-05-17T11:12:02.248Z,14.9
2023-05-17T11:13:18.479Z,14.9
2023-05-17T11:14:34.713Z,14.8
2023-05-17T11:15:50.954Z,14.8
2023-05-17T11:17:07.194Z,14.7
2023-05-17T11:18:23.445Z,14.6
2023-05-17T11:19:39.681Z,14.6
2023-05-17T11:20:54.949Z,14.5
2023-05-17T11:22:11.181Z,14.4
2023-05-17T11:23:27.413Z,14.3
2023-05-17T11:24:43.659Z,14.2
2023-05-17T11:25:59.895Z,14.2
2023-05-17T11:27:16.145Z,14.1
2023-05-17T11:28:32.379Z,14.2
2023-05-17T11:29:48.614Z,14.4
2023-05-17T11:31:04.866Z,14.6
2023-05-17T11:32:21.105Z,14.8
2023-05-17T11:33:37.342Z,15.1
2023-05-17T11:34:53.583Z,15.4
2023-05-17T11:36:09.827Z,15.6
2023-05-17T11:37:25.084Z,15.7
2023-05-17T11:38:41.329Z,15.8
2023-05-17T11:39:57.563Z,15.8
2023-05-17T11:41:13.805Z,15.7
2023-05-17T11:42:30.036Z,15.8
2023-05-17T11:43:46.288Z,15.7
2023-05-17T11:45:02.514Z,15.6
2023-05-17T11:46:18.760Z,15.5
2023-05-17T11:47:34.999Z,15.3
2023-05-17T11:48:51.232Z,15.2
2023-05-17T11:50:07.482Z,15.1
2023-05-17T11:51:23.719Z,15.1
2023-05-17T11:52:39.958Z,15.2
2023-05-17T11:53:55.211Z,15.3
2023-05-17T11:55:11.462Z,15.3
2023-05-17T11:56:27.705Z,15.4
2023-05-17T11:57:43.939Z,15.4
2023-05-17T11:59:00.191Z,15.5
2023-05-17T12:00:16.425Z,15.5
2023-05-17T12:01:32.667Z,15.6
2023-05-17T12:02:48.908Z,15.5
2023-05-17T12:04:05.133Z,15.5
2023-05-17T12:05:21.387Z,15.4
2023-05-17T12:06:37.619Z,15.2
2023-05-17T12:07:53.859Z,15.2
2023-05-17T12:09:10.097Z,15.2
2023-05-17T12:10:25.354Z,15.2
2023-05-17T12:11:41.604Z,15.2
2023-05-17T12:12:57.833Z,15.1
2023-05-17T12:14:14.087Z,15.1
2023-05-17T12:15:30.314Z,15
2023-05-17T12:16:46.565Z,15
2023-05-17T12:18:02.795Z,15
2023-05-17T12:19:19.031Z,15.1
2023-05-17T12:20:35.287Z,15.1
2023-05-17T12:21:51.516Z,15.1
2023-05-17T12:23:07.765Z,15.1
2023-05-17T12:24:24.014Z,15.1
2023-05-17T12:25:40.246Z,15
2023-05-17T12:26:55.504Z,14.9
2023-05-17T12:28:11.739Z,14.8
2023-05-17T12:29:27.981Z,14.7
2023-05-17T12:30:44.230Z,14.7
2023-05-17T12:32:00.451Z,14.7
2023-05-17T12:33:16.693Z,14.6
2023-05-17T12:34:32.946Z,14.6
2023-05-17T12:35:49.183Z,14.7
2023-05-17T12:37:05.415Z,14.7
2023-05-17T12:38:21.672Z,14.7
2023-05-17T12:39:37.904Z,14.7
2023-05-17T12:40:54.132Z,14.7
2023-05-17T12:42:10.392Z,14.8
2023-05-17T12:43:25.646Z,14.8
2023-05-17T12:44:41.888Z,14.8
2023-05-17T12:45:58.122Z,14.7
2023-05-17T12:47:14.367Z,14.7
2023-05-17T12:48:30.609Z,14.7
2023-05-17T12:49:46.848Z,14.7
2023-05-17T12:51:03.086Z,14.6
2023-05-17T12:52:19.313Z,14.6
2023-05-17T12:53:35.556Z,14.6
2023-05-17T12:54:51.810Z,14.6
2023-05-17T12:56:08.036Z,14.6
2023-05-17T12:57:24.287Z,14.6
2023-05-17T12:58:40.531Z,14.6
2023-05-17T12:59:55.779Z,14.6
2023-05-17T13:01:12.011Z,14.7
2023-05-17T13:02:28.265Z,14.8
2023-05-17T13:03:44.501Z,14.8
2023-05-17T13:05:00.744Z,14.9
2023-05-17T13:06:16.976Z,14.9
2023-05-17T13:07:32.245Z,15
2023-05-17T13:08:48.475Z,15.1
2023-05-17T13:10:04.717Z,15.1
2023-05-17T13:11:20.957Z,15.2
2023-05-17T13:12:37.206Z,15.2
2023-05-17T13:13:53.450Z,15.2
2023-05-17T13:15:09.691Z,15.1
2023-05-17T13:16:25.000Z,15.1
2023-05-17T13:17:42.159Z,15
2023-05-17T13:18:58.411Z,14.9
2023-05-17T13:20:14.647Z,14.9
2023-05-17T13:21:30.886Z,14.8
2023-05-17T13:22:47.128Z,14.8
2023-05-17T13:24:02.374Z,14.8
2023-05-17T13:25:18.633Z,14.8
2023-05-17T13:26:34.872Z,14.7
2023-05-17T13:27:51.097Z,14.8
2023-05-17T13:29:07.343Z,14.8
2023-05-17T13:30:23.587Z,14.7
2023-05-17T13:31:39.822Z,14.8
2023-05-17T13:32:56.058Z,14.8
2023-05-17T13:34:12.296Z,14.8
2023-05-17T13:35:28.546Z,14.8
2023-05-17T13:36:44.793Z,14.9
2023-05-17T13:38:01.033Z,14.9
2023-05-17T13:39:17.274Z,15
2023-05-17T13:40:32.518Z,15
2023-05-17T13:41:48.760Z,15
2023-05-17T13:43:05.009Z,15
2023-05-17T13:44:21.245Z,14.9
2023-05-17T13:45:37.477Z,15
2023-05-17T13:46:53.722Z,15
2023-05-17T13:48:09.974Z,15
2023-05-17T13:49:26.213Z,15.1
2023-05-17T13:50:42.440Z,15.1
2023-05-17T13:51:58.691Z,15
2023-05-17T13:53:14.932Z,15
2023-05-17T13:54:31.157Z,15
2023-05-17T13:55:47.397Z,14.9
2023-05-17T13:57:02.671Z,14.9
2023-05-17T13:58:18.895Z,14.8
2023-05-17T13:59:35.144Z,14.8
2023-05-17T14:00:51.392Z,14.8
2023-05-17T14:02:07.623Z,14.7
2023-05-17T14:03:23.872Z,14.6
2023-05-17T14:04:40.104Z,14.6
2023-05-17T14:05:56.348Z,14.6
2023-05-17T14:07:12.575Z,14.5
2023-05-17T14:08:28.815Z,14.5
2023-05-17T14:09:45.061Z,14.5
2023-05-17T14:11:01.303Z,14.5
2023-05-17T14:12:17.546Z,14.4
2023-05-17T14:13:32.799Z,14.4
2023-05-17T14:14:49.045Z,14.4
2023-05-17T14:16:05.285Z,14.5
2023-05-17T14:17:21.518Z,14.5
2023-05-17T14:18:37.753Z,14.5
2023-05-17T14:19:53.992Z,14.5
2023-05-17T14:21:10.240Z,14.6
2023-05-17T14:22:26.484Z,14.6
2023-05-17T14:23:42.713Z,14.6
2023-05-17T14:24:58.973Z,14.7
2023-05-17T14:26:15.206Z,14.7
2023-05-17T14:27:31.439Z,14.7
2023-05-17T14:28:47.676Z,14.8
2023-05-17T14:30:02.944Z,14.8
2023-05-17T14:31:19.180Z,14.9
2023-05-17T14:32:35.423Z,14.9
2023-05-17T14:33:51.658Z,14.9
2023-05-17T14:35:07.901Z,14.9
2023-05-17T14:36:24.139Z,14.9
2023-05-17T14:37:40.386Z,14.9
2023-05-17T14:38:56.631Z,14.9
2023-05-17T14:40:12.857Z,15
2023-05-17T14:41:29.106Z,15
2023-05-17T14:42:45.338Z,15
2023-05-17T14:44:01.582Z,15
2023-05-17T14:45:17.832Z,15
2023-05-17T14:46:33.089Z,15
2023-05-17T14:47:49.327Z,15
2023-05-17T14:49:05.556Z,15
2023-05-17T14:50:21.801Z,15
2023-05-17T14:51:38.045Z,15
2023-05-17T14:52:54.282Z,15
2023-05-17T14:54:10.514Z,15
2023-05-17T14:55:26.769Z,15
2023-05-17T14:56:42.992Z,15
2023-05-17T14:57:59.238Z,15
2023-05-17T14:59:15.477Z,15
2023-05-17T15:00:31.723Z,15.1
2023-05-17T15:01:47.962Z,15.1
2023-05-17T15:03:03.209Z,15.1
2023-05-17T15:04:19.469Z,15.1
2023-05-17T15:05:35.704Z,15.1
2023-05-17T15:06:51.931Z,15.1
2023-05-17T15:08:08.187Z,15.1
2023-05-17T15:09:24.421Z,15.1
2023-05-17T15:10:40.656Z,15.1
2023-05-17T15:11:56.903Z,15
2023-05-17T15:13:13.146Z,15.1
2023-05-17T15:14:29.382Z,15
2023-05-17T15:15:45.628Z,15
2023-05-17T15:17:01.862Z,15
2023-05-17T15:18:18.093Z,15
2023-05-17T15:19:33.365Z,15
2023-05-17T15:20:49.613Z,15
2023-05-17T15:22:05.850Z,15
2023-05-17T15:23:22.085Z,15
2023-05-17T15:24:38.340Z,14.9
2023-05-17T15:25:54.564Z,14.9
2023-05-17T15:27:10.825Z,14.9
2023-05-17T15:28:27.050Z,14.9
2023-05-17T15:29:43.287Z,14.8
2023-05-17T15:30:59.530Z,14.8
2023-05-17T15:32:15.763Z,14.8
2023-05-17T15:33:32.013Z,14.8
2023-05-17T15:34:48.259Z,14.8
2023-05-17T15:36:03.507Z,14.7
2023-05-17T15:37:19.749Z,14.7
2023-05-17T15:38:36.000Z,14.7
2023-05-17T15:39:52.227Z,14.7
2023-05-17T15:41:08.473Z,14.6
2023-05-17T15:42:24.724Z,14.6
2023-05-17T15:43:40.961Z,14.5
2023-05-17T15:44:57.186Z,14.6
2023-05-17T15:46:13.429Z,14.5
2023-05-17T15:47:29.678Z,14.5
2023-05-17T15:48:45.906Z,14.5
2023-05-17T15:50:02.157Z,14.4
2023-05-17T15:51:18.396Z,14.5
2023-05-17T15:52:33.660Z,14.5
2023-05-17T15:53:49.895Z,14.5
2023-05-17T15:55:06.124Z,14.5
2023-05-17T15:56:22.360Z,14.5
2023-05-17T15:57:38.609Z,14.5
2023-05-17T15:58:54.853Z,14.6
2023-05-17T16:00:11.090Z,14.6
2023-05-17T16:01:27.321Z,14.6
2023-05-17T16:02:43.575Z,14.7
2023-05-17T16:03:59.817Z,14.7
2023-05-17T16:05:16.052Z,14.7
2023-05-17T16:06:32.302Z,14.7
2023-05-17T16:07:48.551Z,14.7
2023-05-17T16:09:03.813Z,14.7
2023-05-17T16:10:20.049Z,14.7
2023-05-17T16:11:36.292Z,14.6
2023-05-17T16:12:52.530Z,14.6
2023-05-17T16:14:08.775Z,14.6
2023-05-17T16:15:25.014Z,14.6
2023-05-17T16:16:41.261Z,14.5
2023-05-17T16:17:57.485Z,14.5
2023-05-17T16:19:13.734Z,14.5
2023-05-17T16:20:29.974Z,14.5
2023-05-17T16:21:46.223Z,14.5
2023-05-17T16:23:02.453Z,14.4
2023-05-17T16:24:18.686Z,14.5
2023-05-17T16:25:33.948Z,14.5
2023-05-17T16:26:50.199Z,14.5
2023-05-17T16:28:06.432Z,14.5
2023-05-17T16:29:22.672Z,14.5
2023-05-17T16:30:38.901Z,14.5
2023-05-17T16:31:55.149Z,14.5
2023-05-17T16:33:11.402Z,14.6
2023-05-17T16:34:27.633Z,14.6
2023-05-17T16:35:43.874Z,14.6
2023-05-17T16:37:00.126Z,14.7
2023-05-17T16:38:16.362Z,14.7
2023-05-17T16:39:32.593Z,14.7
2023-05-17T16:40:48.825Z,14.7
2023-05-17T16:42:04.087Z,14.7
2023-05-17T16:43:20.331Z,14.6
2023-05-17T16:44:36.560Z,14.6
2023-05-17T16:45:52.821Z,14.6
2023-05-17T16:47:09.042Z,14.6
2023-05-17T16:48:25.285Z,14.6
2023-05-17T16:49:41.541Z,14.6
2023-05-17T16:50:57.780Z,14.6
2023-05-17T16:52:14.001Z,14.5
2023-05-17T16:53:30.250Z,14.5
2023-05-17T16:54:46.488Z,14.5
2023-05-17T16:56:02.735Z,14.5
2023-05-17T16:57:18.976Z,14.5
2023-05-17T16:58:34.229Z,14.4
2023-05-17T16:59:50.474Z,14.4
2023-05-17T17:01:06.707Z,14.4
2023-05-17T17:02:22.956Z,14.4
2023-05-17T17:03:39.191Z,14.3
2023-05-17T17:04:55.422Z,14.3
2023-05-17T17:06:11.676Z,14.3
2023-05-17T17:07:27.901Z,14.3
2023-05-17T17:08:44.163Z,14.2
2023-05-17T17:10:00.389Z,14.2
2023-05-17T17:11:16.632Z,14.2
2023-05-17T17:12:32.871Z,14.2
2023-05-17T17:13:49.000Z,14.2
2023-05-17T17:15:04.360Z,14.2
2023-05-17T17:16:20.602Z,14.2